HEEM weather

Giza Embaba Airport
Cairo, Cairo Governorate, Egypt

Public forecast

Using degrees Celsius for public forecast. Weather courtesy of forecast.io.

METAR (pilot weather report)

Closest report is Cairo International Airport, 11.5 nm (21.3 km) ENE. Retrieved 2019/03/27 00:00 UTC (4 minutes ago):

HECA 270000Z 31005KT 6000 FEW025 16/11 Q1018 NOSIG

TAF (pilot weather forecast)

Forecast is more than 12 hours old.

Closest forecast is Cairo International Airport, 11.5 nm (21.3 km) ENE. Retrieved 2019/03/26 00:40 UTC (23 hours ago):

TAF HECA 262300Z 2700/2806 27008KT 9999 SCT025 TEMPO 2700/2706 VRB03KT 4000 BR NSC